Time;durP1;ratioP1;P1;durP2;ratioP2;P2;SDS_P1;SDS_P2;PMS_P1;PMS_P2;Temp;Humidity;BMP_temperature;BMP_pressure;BME280_temperature;BME280_humidity;BME280_pressure;Samples;Min_cycle;Max_cycle;Signal;HPM_P1;HPM_P2
2021/01/17 00:00:12;;;;;;;36.78;14.52;;;;;;;;;;5073313;28;20041;-60
2021/01/17 00:02:39;;;;;;;36.20;14.02;;;;;;;;;;5073435;28;20058;-60
2021/01/17 00:05:09;;;;;;;34.97;12.98;;;;;;;;;;5066457;28;20531;-61
2021/01/17 00:07:34;;;;;;;55.65;20.67;;;;;;;;;;5054692;28;20440;-59
2021/01/17 00:09:59;;;;;;;45.27;18.27;;;;;;;;;;5072315;28;20060;-58
2021/01/17 00:12:25;;;;;;;32.73;13.27;;;;;;;;;;5072792;28;20442;-59
2021/01/17 00:14:50;;;;;;;32.67;13.23;;;;;;;;;;5070885;28;20388;-60
2021/01/17 00:17:15;;;;;;;28.30;12.40;;;;;;;;;;5071326;28;20046;-59
2021/01/17 00:19:41;;;;;;;32.73;13.80;;;;;;;;;;5088272;28;20062;-60
2021/01/17 00:22:06;;;;;;;34.27;13.67;;;;;;;;;;5070512;28;20077;-59
2021/01/17 00:24:31;;;;;;;47.07;16.67;;;;;;;;;;5071233;28;20025;-60
2021/01/17 00:26:57;;;;;;;41.70;16.00;;;;;;;;;;5071864;28;20094;-59
2021/01/17 00:29:22;;;;;;;40.77;14.50;;;;;;;;;;5072531;28;20082;-60
2021/01/17 00:31:50;;;;;;;41.37;16.17;;;;;;;;;;5072122;28;20393;-60
2021/01/17 00:34:16;;;;;;;53.20;20.15;;;;;;;;;;5072098;28;20036;-60
2021/01/17 00:36:41;;;;;;;52.83;18.10;;;;;;;;;;5074044;28;20039;-61
2021/01/17 00:39:07;;;;;;;44.83;16.67;;;;;;;;;;5071959;28;20106;-61
2021/01/17 00:41:33;;;;;;;37.60;13.70;;;;;;;;;;5072269;28;20058;-59
2021/01/17 00:43:58;;;;;;;49.38;16.80;;;;;;;;;;5071799;28;20276;-60
2021/01/17 00:46:24;;;;;;;50.17;17.17;;;;;;;;;;5074992;28;20037;-60
2021/01/17 00:48:50;;;;;;;35.33;13.67;;;;;;;;;;5076428;28;20249;-60
2021/01/17 00:51:16;;;;;;;;;;;;;;;;;;5076968;28;20035;-60
2021/01/17 00:53:41;;;;;;;34.70;12.80;;;;;;;;;;5076128;28;19916;-59
2021/01/17 00:56:06;;;;;;;35.90;14.17;;;;;;;;;;5057891;28;20056;-60
2021/01/17 00:58:32;;;;;;;56.83;19.17;;;;;;;;;;5091601;28;20400;-60
2021/01/17 01:01:06;;;;;;;40.80;15.20;;;;;;;;;;5073958;28;20033;-60
2021/01/17 01:03:35;;;;;;;50.83;17.27;;;;;;;;;;5058780;28;20024;-59
2021/01/17 01:06:01;;;;;;;42.43;17.67;;;;;;;;;;5075239;28;20049;-61
2021/01/17 01:08:26;;;;;;;40.43;13.97;;;;;;;;;;5075752;28;20024;-60
2021/01/17 01:10:51;;;;;;;40.47;15.57;;;;;;;;;;5075706;28;20068;-61
2021/01/17 01:13:17;;;;;;;53.33;16.47;;;;;;;;;;5075122;28;20037;-60
2021/01/17 01:15:42;;;;;;;43.53;15.20;;;;;;;;;;5076005;28;20024;-60
2021/01/17 01:18:08;;;;;;;45.53;14.63;;;;;;;;;;5075108;28;20494;-61
2021/01/17 01:20:33;;;;;;;38.27;11.53;;;;;;;;;;5074520;28;20155;-59
2021/01/17 01:22:58;;;;;;;42.13;13.13;;;;;;;;;;5075240;28;20025;-60
2021/01/17 01:25:24;;;;;;;57.20;18.50;;;;;;;;;;5075855;28;20024;-60
2021/01/17 01:27:49;;;;;;;41.80;14.00;;;;;;;;;;5074339;28;20120;-61
2021/01/17 01:30:15;;;;;;;47.90;14.70;;;;;;;;;;5074979;28;20040;-61
2021/01/17 01:32:41;;;;;;;44.10;14.50;;;;;;;;;;5075451;28;20117;-60
2021/01/17 01:35:07;;;;;;;39.17;15.20;;;;;;;;;;5074846;28;20120;-61
2021/01/17 01:37:36;;;;;;;38.13;14.80;;;;;;;;;;5074082;28;20037;-61
2021/01/17 01:40:02;;;;;;;37.13;13.18;;;;;;;;;;5074690;28;20071;-60
2021/01/17 01:42:27;;;;;;;;;;;;;;;;;;5075601;28;20033;-60
2021/01/17 01:44:53;;;;;;;39.90;13.63;;;;;;;;;;5074060;28;20336;-60
2021/01/17 01:47:24;;;;;;;50.00;16.67;;;;;;;;;;5078256;28;20021;-60
2021/01/17 01:49:49;;;;;;;48.30;15.30;;;;;;;;;;5082028;28;20025;-61
2021/01/17 01:52:15;;;;;;;31.33;10.20;;;;;;;;;;5073495;28;20389;-61
2021/01/17 01:54:40;;;;;;;45.93;16.70;;;;;;;;;;5075275;28;20085;-60
2021/01/17 01:57:06;;;;;;;44.83;15.07;;;;;;;;;;5073108;28;20033;-61
2021/01/17 01:59:32;;;;;;;35.87;12.60;;;;;;;;;;5075108;28;20477;-61
2021/01/17 02:01:58;;;;;;;46.05;14.60;;;;;;;;;;5074375;28;20024;-61
2021/01/17 02:04:23;;;;;;;37.95;14.25;;;;;;;;;;5074610;28;20051;-61
2021/01/17 02:06:58;;;;;;;48.47;16.37;;;;;;;;;;5075144;28;20452;-60
2021/01/17 02:09:28;;;;;;;36.38;13.18;;;;;;;;;;5073771;28;20115;-60
2021/01/17 02:12:12;;;;;;;50.53;17.92;;;;;;;;;;5074841;28;20086;-60
2021/01/17 02:14:37;;;;;;;40.72;13.60;;;;;;;;;;5073316;28;20132;-61
2021/01/17 02:17:07;;;;;;;40.87;15.63;;;;;;;;;;5073830;28;20056;-61
2021/01/17 02:19:56;;;;;;;42.38;14.70;;;;;;;;;;5074690;28;20028;-61
2021/01/17 02:22:23;;;;;;;46.40;14.60;;;;;;;;;;5073807;28;20116;-63
2021/01/17 02:24:51;;;;;;;52.00;15.88;;;;;;;;;;5074295;28;20028;-61
2021/01/17 02:27:17;;;;;;;58.47;16.95;;;;;;;;;;5073752;28;20028;-61
2021/01/17 02:29:45;;;;;;;45.25;15.80;;;;;;;;;;5073147;28;20384;-61
2021/01/17 02:32:11;;;;;;;58.55;19.23;;;;;;;;;;5074587;28;20033;-60
2021/01/17 02:34:37;;;;;;;49.42;16.30;;;;;;;;;;5073277;28;20040;-60
2021/01/17 02:37:21;;;;;;;54.97;19.27;;;;;;;;;;5073704;28;20035;-61
2021/01/17 02:39:56;;;;;;;50.15;17.08;;;;;;;;;;5072925;28;20032;-62
2021/01/17 02:42:21;;;;;;;49.08;15.90;;;;;;;;;;5074216;28;20029;-62
2021/01/17 02:44:47;;;;;;;45.37;13.77;;;;;;;;;;5074304;28;20031;-62
2021/01/17 02:47:12;;;;;;;46.67;17.00;;;;;;;;;;5073645;28;20063;-61
2021/01/17 02:49:37;;;;;;;42.47;14.30;;;;;;;;;;5074013;28;20029;-60
2021/01/17 02:52:05;;;;;;;52.63;16.13;;;;;;;;;;5072469;28;20051;-61
2021/01/17 02:54:48;;;;;;;49.22;14.98;;;;;;;;;;5072506;28;20114;-62
2021/01/17 02:57:15;;;;;;;54.65;18.80;;;;;;;;;;5073360;28;20036;-62
2021/01/17 02:59:46;;;;;;;41.05;15.88;;;;;;;;;;5073709;28;20025;-62
2021/01/17 03:02:13;;;;;;;46.25;17.27;;;;;;;;;;5072942;28;20024;-62
2021/01/17 03:04:53;;;;;;;48.58;16.70;;;;;;;;;;5073493;28;20047;-64
2021/01/17 03:07:20;;;;;;;45.28;16.00;;;;;;;;;;5071818;28;20407;-63
2021/01/17 03:09:45;;;;;;;48.75;15.38;;;;;;;;;;5073197;28;20100;-64
2021/01/17 03:12:11;;;;;;;51.00;17.80;;;;;;;;;;5071750;28;20456;-63
2021/01/17 03:14:37;;;;;;;50.57;16.37;;;;;;;;;;5073609;28;20406;-64
2021/01/17 03:17:03;;;;;;;29.27;11.20;;;;;;;;;;5073594;28;20257;-65
2021/01/17 03:19:29;;;;;;;48.88;14.55;;;;;;;;;;5073468;28;20031;-66
2021/01/17 03:21:55;;;;;;;28.23;10.10;;;;;;;;;;5073193;28;20107;-65
2021/01/17 03:24:20;;;;;;;37.50;13.57;;;;;;;;;;5072482;28;20058;-65
2021/01/17 03:26:45;;;;;;;38.30;14.47;;;;;;;;;;5073297;28;20035;-63
2021/01/17 03:29:11;;;;;;;41.90;15.60;;;;;;;;;;5072416;28;20027;-63
2021/01/17 03:31:36;;;;;;;36.30;13.40;;;;;;;;;;5072938;28;20032;-63
2021/01/17 03:34:01;;;;;;;34.33;13.93;;;;;;;;;;5072063;28;20037;-62
2021/01/17 03:36:27;;;;;;;34.93;12.37;;;;;;;;;;5071320;28;20024;-63
2021/01/17 03:38:52;;;;;;;25.10;10.00;;;;;;;;;;5073439;28;20028;-63
2021/01/17 03:41:17;;;;;;;38.93;15.13;;;;;;;;;;5072604;28;20052;-63
2021/01/17 03:43:43;;;;;;;34.20;13.77;;;;;;;;;;5071589;28;20025;-63
2021/01/17 03:46:08;;;;;;;35.33;13.83;;;;;;;;;;5072100;28;20036;-63
2021/01/17 03:48:33;;;;;;;38.70;13.47;;;;;;;;;;5072571;28;20028;-62
2021/01/17 03:50:59;;;;;;;26.73;10.07;;;;;;;;;;5072961;28;20115;-63
2021/01/17 03:53:24;;;;;;;38.80;13.77;;;;;;;;;;5072158;28;20074;-63
2021/01/17 03:55:49;;;;;;;32.87;13.27;;;;;;;;;;5072477;28;20025;-63
2021/01/17 03:58:15;;;;;;;35.37;12.50;;;;;;;;;;5070600;28;20023;-62
2021/01/17 04:00:40;;;;;;;31.80;12.93;;;;;;;;;;5072702;28;20035;-62
2021/01/17 04:03:05;;;;;;;43.53;15.53;;;;;;;;;;5072478;28;20040;-62
2021/01/17 04:05:31;;;;;;;42.93;15.80;;;;;;;;;;5071752;28;20051;-61
2021/01/17 04:07:56;;;;;;;39.70;16.30;;;;;;;;;;5072644;28;20024;-62
2021/01/17 04:10:21;;;;;;;40.40;17.20;;;;;;;;;;5073272;28;20074;-61
2021/01/17 04:12:47;;;;;;;41.57;15.00;;;;;;;;;;5054328;28;20037;-61
2021/01/17 04:15:12;;;;;;;34.13;13.97;;;;;;;;;;5071702;28;20119;-60
2021/01/17 04:17:38;;;;;;;38.80;16.30;;;;;;;;;;5072392;28;20112;-62
2021/01/17 04:20:03;;;;;;;40.67;16.00;;;;;;;;;;5071826;28;20452;-60
2021/01/17 04:22:29;;;;;;;45.28;16.33;;;;;;;;;;5070726;28;20035;-61
2021/01/17 04:24:54;;;;;;;39.33;16.10;;;;;;;;;;5071195;28;20400;-62
2021/01/17 04:27:20;;;;;;;39.23;15.10;;;;;;;;;;5072064;28;20491;-61
2021/01/17 04:29:45;;;;;;;38.80;14.82;;;;;;;;;;5072379;28;20155;-61
2021/01/17 04:32:11;;;;;;;50.20;17.17;;;;;;;;;;5072060;28;20036;-59
2021/01/17 04:34:36;;;;;;;35.17;14.53;;;;;;;;;;5071962;28;20063;-61
2021/01/17 04:37:02;;;;;;;40.43;16.83;;;;;;;;;;5072053;28;20111;-61
2021/01/17 04:39:27;;;;;;;50.93;16.50;;;;;;;;;;5071555;28;20109;-60
2021/01/17 04:41:56;;;;;;;42.50;16.33;;;;;;;;;;5072057;28;20081;-60
2021/01/17 04:44:28;;;;;;;50.20;19.75;;;;;;;;;;5071377;28;20024;-60
2021/01/17 04:46:53;;;;;;;44.35;18.23;;;;;;;;;;5072008;28;20028;-59
2021/01/17 04:49:20;;;;;;;54.95;19.85;;;;;;;;;;5071404;28;20025;-60
2021/01/17 04:51:49;;;;;;;51.75;19.27;;;;;;;;;;5072386;28;20029;-60
2021/01/17 04:54:15;;;;;;;44.78;18.08;;;;;;;;;;5069758;28;20037;-59
2021/01/17 04:56:52;;;;;;;43.57;16.93;;;;;;;;;;5072250;28;20028;-59
2021/01/17 04:59:25;;;;;;;47.60;18.23;;;;;;;;;;5071395;28;20028;-60
2021/01/17 05:02:04;;;;;;;47.38;18.67;;;;;;;;;;5070772;28;20510;-61
2021/01/17 05:04:35;;;;;;;46.05;18.23;;;;;;;;;;5071403;28;20182;-60
2021/01/17 05:07:07;;;;;;;41.80;17.52;;;;;;;;;;5071798;28;20464;-60
2021/01/17 05:09:38;;;;;;;50.70;20.45;;;;;;;;;;5071703;28;20032;-59
2021/01/17 05:12:08;;;;;;;50.58;18.88;;;;;;;;;;5070728;28;20035;-59
2021/01/17 05:14:48;;;;;;;46.10;17.55;;;;;;;;;;5071218;28;20039;-60
2021/01/17 05:17:19;;;;;;;46.22;18.92;;;;;;;;;;5071480;28;20025;-60
2021/01/17 05:19:46;;;;;;;53.75;18.40;;;;;;;;;;5071648;28;20043;-60
2021/01/17 05:22:11;;;;;;;;;;;;;;;;;;5071970;28;20050;-60
2021/01/17 05:24:39;;;;;;;46.37;18.40;;;;;;;;;;5071149;28;19912;-61
2021/01/17 05:27:05;;;;;;;48.25;18.83;;;;;;;;;;5070584;28;20037;-63
2021/01/17 05:29:30;;;;;;;50.87;19.30;;;;;;;;;;5071299;28;20036;-62
2021/01/17 05:31:56;;;;;;;51.40;19.70;;;;;;;;;;5073568;28;20020;-59
2021/01/17 05:34:22;;;;;;;50.95;18.52;;;;;;;;;;5073529;28;20036;-59
2021/01/17 05:36:59;;;;;;;54.05;19.73;;;;;;;;;;5076627;28;20360;-60
2021/01/17 05:39:25;;;;;;;52.80;19.10;;;;;;;;;;5083673;28;20392;-60
2021/01/17 05:41:50;;;;;;;66.17;22.37;;;;;;;;;;5074027;28;20024;-61
2021/01/17 05:44:28;;;;;;;53.50;20.00;;;;;;;;;;5073776;28;20041;-59
2021/01/17 05:47:03;;;;;;;46.05;18.88;;;;;;;;;;5075293;28;20027;-59
2021/01/17 05:49:28;;;;;;;53.38;18.63;;;;;;;;;;5074216;28;20082;-60
2021/01/17 05:52:08;;;;;;;44.07;17.10;;;;;;;;;;5073672;28;20032;-60
2021/01/17 05:54:33;;;;;;;50.95;19.50;;;;;;;;;;5074288;28;20028;-61
2021/01/17 05:56:58;;;;;;;57.40;19.83;;;;;;;;;;5075153;28;20435;-58
2021/01/17 05:59:35;;;;;;;50.80;20.37;;;;;;;;;;5074058;28;20031;-58
2021/01/17 06:02:01;;;;;;;53.83;21.30;;;;;;;;;;5074701;28;20409;-58
2021/01/17 06:04:27;;;;;;;60.92;21.92;;;;;;;;;;5073725;28;20162;-58
2021/01/17 06:06:53;;;;;;;51.40;20.08;;;;;;;;;;5073863;28;20063;-58
2021/01/17 06:09:20;;;;;;;55.85;21.80;;;;;;;;;;5074495;28;20032;-58
2021/01/17 06:11:57;;;;;;;52.28;19.45;;;;;;;;;;5073475;28;20036;-58
2021/01/17 06:14:24;;;;;;;60.55;22.00;;;;;;;;;;5074990;28;20525;-57
2021/01/17 06:16:50;;;;;;;61.17;23.27;;;;;;;;;;5074671;28;20119;-59
2021/01/17 06:19:15;;;;;;;63.75;24.13;;;;;;;;;;5073477;28;20088;-58
2021/01/17 06:21:46;;;;;;;61.87;22.80;;;;;;;;;;5074374;28;20527;-59
2021/01/17 06:24:12;;;;;;;59.50;21.20;;;;;;;;;;5073929;28;20032;-59
2021/01/17 06:26:38;;;;;;;68.23;22.30;;;;;;;;;;5073643;28;20522;-58
2021/01/17 06:29:05;;;;;;;66.10;22.35;;;;;;;;;;5072915;28;20028;-57
2021/01/17 06:31:31;;;;;;;72.65;25.45;;;;;;;;;;5073979;28;20032;-57
2021/01/17 06:34:07;;;;;;;71.05;23.15;;;;;;;;;;5076130;28;20029;-58
2021/01/17 06:36:33;;;;;;;65.53;22.85;;;;;;;;;;5074137;28;20057;-56
2021/01/17 06:38:58;;;;;;;51.88;19.67;;;;;;;;;;5072880;28;20020;-58
2021/01/17 06:41:54;;;;;;;64.60;23.10;;;;;;;;;;5074354;28;20036;-58
2021/01/17 06:44:26;;;;;;;71.60;23.10;;;;;;;;;;5072428;28;20547;-58
2021/01/17 06:46:52;;;;;;;63.67;23.25;;;;;;;;;;5074173;28;20029;-57
2021/01/17 06:49:22;;;;;;;70.13;22.17;;;;;;;;;;5073808;28;20032;-59
2021/01/17 06:51:48;;;;;;;72.05;24.52;;;;;;;;;;5073328;28;20044;-56
2021/01/17 06:54:15;;;;;;;69.18;24.80;;;;;;;;;;5073845;28;20125;-57
2021/01/17 06:56:43;;;;;;;65.72;23.33;;;;;;;;;;5071943;28;20036;-57
2021/01/17 06:59:08;;;;;;;69.68;24.15;;;;;;;;;;5072334;28;20029;-56
2021/01/17 07:01:40;;;;;;;77.37;25.03;;;;;;;;;;5073451;28;20042;-59
2021/01/17 07:04:08;;;;;;;86.80;26.40;;;;;;;;;;5079981;28;20471;-58
2021/01/17 07:06:52;;;;;;;81.35;24.60;;;;;;;;;;5076481;28;20056;-60
2021/01/17 07:09:30;;;;;;;79.53;26.92;;;;;;;;;;5073032;28;20462;-59
2021/01/17 07:11:59;;;;;;;79.82;25.02;;;;;;;;;;5073094;28;20043;-58
2021/01/17 07:14:28;;;;;;;74.60;24.95;;;;;;;;;;5073072;28;20082;-59
2021/01/17 07:16:55;;;;;;;76.03;25.38;;;;;;;;;;5071398;28;20029;-59
2021/01/17 07:19:21;;;;;;;71.03;23.92;;;;;;;;;;5072852;28;20082;-59
2021/01/17 07:21:48;;;;;;;78.75;25.80;;;;;;;;;;5072002;28;20032;-58
2021/01/17 07:24:15;;;;;;;68.05;24.50;;;;;;;;;;5072951;28;20045;-60
2021/01/17 07:27:01;;;;;;;67.32;25.88;;;;;;;;;;5072227;28;20382;-59
2021/01/17 07:29:27;;;;;;;64.10;24.95;;;;;;;;;;5072458;28;20067;-59
2021/01/17 07:31:54;;;;;;;74.35;26.60;;;;;;;;;;5071928;28;20112;-59
2021/01/17 07:34:19;;;;;;;;;;;;;;;;;;5072074;28;20048;-59
2021/01/17 07:36:48;;;;;;;65.93;21.93;;;;;;;;;;5071738;28;20287;-59
2021/01/17 07:39:19;;;;;;;65.43;24.70;;;;;;;;;;5072900;28;20476;-59
2021/01/17 07:41:46;;;;;;;73.10;25.95;;;;;;;;;;5072071;28;20063;-59
2021/01/17 07:44:17;;;;;;;72.28;25.42;;;;;;;;;;5072633;28;20036;-58
2021/01/17 07:46:42;;;;;;;70.63;24.50;;;;;;;;;;5053803;28;20057;-58
2021/01/17 07:49:10;;;;;;;55.50;20.97;;;;;;;;;;5071012;28;20467;-59
2021/01/17 07:51:35;;;;;;;62.05;20.73;;;;;;;;;;5071559;28;20051;-59
2021/01/17 07:54:20;;;;;;;56.00;21.33;;;;;;;;;;5072216;28;20024;-60
2021/01/17 07:56:46;;;;;;;59.20;20.42;;;;;;;;;;5071235;28;20123;-59
2021/01/17 07:59:11;;;;;;;58.22;21.42;;;;;;;;;;5071093;28;20032;-59
2021/01/17 08:01:38;;;;;;;64.67;22.60;;;;;;;;;;5071208;28;20037;-59
2021/01/17 08:04:04;;;;;;;54.55;19.65;;;;;;;;;;5072151;28;20115;-59
2021/01/17 08:06:35;;;;;;;62.73;20.23;;;;;;;;;;5072461;28;20421;-60
2021/01/17 08:09:00;;;;;;;62.83;21.15;;;;;;;;;;5071090;28;20067;-59
2021/01/17 08:11:40;;;;;;;54.47;21.07;;;;;;;;;;5071049;28;20388;-60
2021/01/17 08:14:24;;;;;;;56.17;18.05;;;;;;;;;;5075366;28;20751;-59
2021/01/17 08:17:08;;;;;;;50.78;16.77;;;;;;;;;;5080343;28;20058;-59
2021/01/17 08:19:33;;;;;;;40.75;16.08;;;;;;;;;;5089457;28;20039;-58
2021/01/17 08:22:19;;;;;;;55.10;18.53;;;;;;;;;;5091840;28;20024;-59
2021/01/17 08:24:45;;;;;;;52.65;19.70;;;;;;;;;;5073149;28;20055;-60
2021/01/17 08:27:20;;;;;;;50.92;17.08;;;;;;;;;;5090727;28;20016;-59
2021/01/17 08:30:11;;;;;;;59.45;19.05;;;;;;;;;;5089989;28;20042;-59
2021/01/17 08:35:10;;;;;;;54.60;17.33;;;;;;;;;;5091936;28;20036;-59
2021/01/17 08:37:36;;;;;;;52.90;15.45;;;;;;;;;;5091644;28;20032;-58
2021/01/17 08:40:03;;;;;;;44.30;14.68;;;;;;;;;;5091932;28;20024;-59
2021/01/17 08:42:32;;;;;;;46.30;14.23;;;;;;;;;;5093401;28;20396;-59
2021/01/17 08:44:58;;;;;;;47.60;13.40;;;;;;;;;;5091399;28;20966;-59
2021/01/17 08:47:23;;;;;;;41.53;14.10;;;;;;;;;;5090281;28;20036;-59
2021/01/17 08:49:49;;;;;;;48.70;14.70;;;;;;;;;;5090786;28;20517;-58
2021/01/17 08:52:23;;;;;;;34.53;11.27;;;;;;;;;;5091858;28;20039;-58
2021/01/17 08:54:48;;;;;;;43.33;11.68;;;;;;;;;;5089459;28;20040;-58
2021/01/17 08:57:32;;;;;;;41.38;10.73;;;;;;;;;;5090600;28;20035;-58
2021/01/17 08:59:58;;;;;;;39.33;9.90;;;;;;;;;;5090978;28;20101;-58
2021/01/17 09:02:23;;;;;;;41.17;10.17;;;;;;;;;;5091664;28;20427;-58
2021/01/17 09:04:49;;;;;;;44.78;10.65;;;;;;;;;;5090887;28;20340;-59
2021/01/17 09:07:34;;;;;;;38.15;9.63;;;;;;;;;;5075796;28;20486;-59
2021/01/17 09:10:07;;;;;;;34.10;7.43;;;;;;;;;;5095015;28;20028;-59
2021/01/17 09:12:34;;;;;;;32.72;8.25;;;;;;;;;;5093289;28;20039;-58
2021/01/17 09:15:00;;;;;;;30.27;7.57;;;;;;;;;;5093699;28;20032;-59
2021/01/17 09:17:25;;;;;;;41.38;7.95;;;;;;;;;;5094361;28;20039;-59
2021/01/17 09:19:55;;;;;;;35.23;8.53;;;;;;;;;;5094585;28;20036;-59
2021/01/17 09:22:21;;;;;;;39.85;7.30;;;;;;;;;;5094267;28;20260;-59
2021/01/17 09:24:47;;;;;;;31.93;8.13;;;;;;;;;;5094440;28;20028;-59
2021/01/17 09:27:13;;;;;;;35.53;8.33;;;;;;;;;;5095132;28;20032;-59
2021/01/17 09:29:39;;;;;;;38.63;7.70;;;;;;;;;;5094714;28;20387;-59
2021/01/17 09:32:04;;;;;;;33.15;6.78;;;;;;;;;;5094865;28;20028;-59
2021/01/17 09:34:31;;;;;;;36.07;6.83;;;;;;;;;;5095055;28;20032;-59
2021/01/17 09:36:57;;;;;;;35.20;7.22;;;;;;;;;;5094257;28;20028;-59
2021/01/17 09:39:30;;;;;;;32.65;7.93;;;;;;;;;;5094125;28;20152;-58
2021/01/17 09:41:56;;;;;;;39.75;7.70;;;;;;;;;;5093170;28;20035;-59
2021/01/17 09:44:21;;;;;;;43.23;9.00;;;;;;;;;;5093426;28;20028;-58
2021/01/17 09:46:47;;;;;;;43.30;8.77;;;;;;;;;;5092889;28;20039;-58
2021/01/17 09:49:12;;;;;;;35.17;6.53;;;;;;;;;;5080861;28;20036;-59
2021/01/17 09:51:38;;;;;;;46.40;9.03;;;;;;;;;;5084025;28;20383;-59
2021/01/17 09:54:03;;;;;;;34.85;8.05;;;;;;;;;;5082664;28;20054;-59
2021/01/17 09:56:30;;;;;;;34.50;7.03;;;;;;;;;;5083792;28;20025;-58
2021/01/17 09:58:55;;;;;;;35.22;8.98;;;;;;;;;;5080209;28;20039;-58
2021/01/17 10:01:21;;;;;;;33.70;7.67;;;;;;;;;;5083982;28;20032;-58
2021/01/17 10:03:47;;;;;;;34.40;6.70;;;;;;;;;;5082283;28;20077;-56
2021/01/17 10:06:13;;;;;;;28.83;6.93;;;;;;;;;;5088207;28;20024;-58
2021/01/17 10:08:39;;;;;;;34.33;6.57;;;;;;;;;;5094487;28;20047;-59
2021/01/17 10:11:04;;;;;;;36.35;7.47;;;;;;;;;;5092736;28;20236;-59
2021/01/17 10:13:30;;;;;;;38.43;6.73;;;;;;;;;;5094010;28;20083;-58
2021/01/17 10:15:55;;;;;;;43.07;8.07;;;;;;;;;;5093316;28;20036;-59
2021/01/17 10:18:24;;;;;;;42.27;8.83;;;;;;;;;;5091919;28;20121;-58
2021/01/17 10:20:53;;;;;;;31.83;7.78;;;;;;;;;;5092497;28;20032;-59
2021/01/17 10:23:19;;;;;;;22.90;6.00;;;;;;;;;;5094457;28;20032;-59
2021/01/17 10:25:45;;;;;;;;;;;;;;;;;;5092650;28;20059;-59
2021/01/17 10:28:11;;;;;;;42.67;7.17;;;;;;;;;;5094224;28;19908;-59
2021/01/17 10:30:40;;;;;;;29.88;6.35;;;;;;;;;;5092834;28;20020;-58
2021/01/17 10:33:15;;;;;;;29.33;5.68;;;;;;;;;;5091915;28;20097;-59
2021/01/17 10:35:47;;;;;;;29.25;6.22;;;;;;;;;;5093135;28;20036;-58
2021/01/17 10:38:13;;;;;;;29.00;7.15;;;;;;;;;;5093820;28;20031;-58
2021/01/17 10:40:39;;;;;;;32.35;6.45;;;;;;;;;;5076163;28;20123;-62
2021/01/17 10:43:23;;;;;;;34.75;6.93;;;;;;;;;;5093341;28;20042;-60
2021/01/17 10:45:51;;;;;;;35.03;7.38;;;;;;;;;;5092238;28;20080;-59
2021/01/17 10:48:17;;;;;;;40.25;5.93;;;;;;;;;;5094785;28;20032;-59
2021/01/17 10:50:49;;;;;;;27.27;6.87;;;;;;;;;;5094899;28;20024;-59
2021/01/17 10:53:15;;;;;;;32.92;6.80;;;;;;;;;;5092918;28;20047;-58
2021/01/17 10:55:43;;;;;;;33.10;7.80;;;;;;;;;;5092760;28;20028;-58
2021/01/17 10:58:12;;;;;;;20.83;5.95;;;;;;;;;;5091899;28;20024;-59
2021/01/17 11:00:37;;;;;;;24.48;6.88;;;;;;;;;;5095494;28;20024;-59
2021/01/17 11:03:04;;;;;;;32.47;7.03;;;;;;;;;;5093080;28;20028;-59
2021/01/17 11:05:29;;;;;;;25.90;5.72;;;;;;;;;;5093645;28;20055;-59
2021/01/17 11:07:55;;;;;;;30.93;6.87;;;;;;;;;;5092554;28;20032;-60
2021/01/17 11:10:20;;;;;;;38.97;8.57;;;;;;;;;;5093864;28;20032;-59
2021/01/17 11:12:46;;;;;;;33.90;7.37;;;;;;;;;;5093596;28;20271;-58
2021/01/17 11:15:14;;;;;;;28.33;8.52;;;;;;;;;;5093098;28;20287;-59
2021/01/17 11:17:40;;;;;;;29.58;6.80;;;;;;;;;;5092209;28;20028;-59
2021/01/17 11:20:07;;;;;;;30.52;6.18;;;;;;;;;;5081886;28;20024;-59
2021/01/17 11:22:33;;;;;;;31.70;6.15;;;;;;;;;;5080294;28;20032;-58
2021/01/17 11:24:58;;;;;;;29.43;5.03;;;;;;;;;;5079310;28;20372;-59
2021/01/17 11:27:32;;;;;;;34.27;6.33;;;;;;;;;;5082664;28;20245;-59
2021/01/17 11:29:58;;;;;;;29.02;6.15;;;;;;;;;;5080835;28;20051;-59
2021/01/17 11:32:30;;;;;;;20.47;6.40;;;;;;;;;;5079283;28;20016;-59
2021/01/17 11:34:56;;;;;;;30.70;6.43;;;;;;;;;;5080248;28;20028;-60
2021/01/17 11:37:30;;;;;;;24.33;4.80;;;;;;;;;;5078601;28;20276;-60
2021/01/17 11:40:05;;;;;;;20.33;4.23;;;;;;;;;;5072222;28;20079;-60
2021/01/17 11:42:31;;;;;;;30.20;5.90;;;;;;;;;;5080647;28;20269;-58
2021/01/17 11:44:59;;;;;;;34.63;6.33;;;;;;;;;;5079175;28;20253;-59
2021/01/17 11:47:25;;;;;;;28.37;6.13;;;;;;;;;;5081272;28;20031;-59
2021/01/17 11:49:51;;;;;;;33.78;6.72;;;;;;;;;;5078861;28;20344;-59
2021/01/17 11:52:16;;;;;;;35.03;8.10;;;;;;;;;;5081149;28;20032;-59
2021/01/17 11:54:42;;;;;;;26.50;6.53;;;;;;;;;;5082054;28;20047;-60
2021/01/17 11:57:09;;;;;;;26.80;6.57;;;;;;;;;;5079275;28;20025;-58
2021/01/17 11:59:35;;;;;;;23.97;5.43;;;;;;;;;;5080732;28;20063;-59
2021/01/17 12:02:17;;;;;;;26.52;6.18;;;;;;;;;;5079775;28;20296;-60
2021/01/17 12:04:44;;;;;;;19.90;5.40;;;;;;;;;;5074589;28;20068;-59
2021/01/17 12:07:09;;;;;;;;;;;;;;;;;;5072151;28;20261;-59
2021/01/17 12:09:34;;;;;;;20.43;4.20;;;;;;;;;;5072323;28;19912;-59
2021/01/17 12:12:09;;;;;;;18.37;4.17;;;;;;;;;;5071195;28;20070;-58
2021/01/17 12:14:34;;;;;;;21.77;5.00;;;;;;;;;;5071557;28;20114;-60
2021/01/17 12:17:00;;;;;;;25.43;5.27;;;;;;;;;;5054535;28;20274;-60
2021/01/17 12:19:26;;;;;;;19.53;4.57;;;;;;;;;;5083039;28;20062;-60
2021/01/17 12:21:56;;;;;;;15.30;3.20;;;;;;;;;;5090582;28;20503;-58
2021/01/17 12:24:21;;;;;;;11.63;3.30;;;;;;;;;;5090450;28;20494;-59
2021/01/17 12:26:47;;;;;;;26.57;4.57;;;;;;;;;;5092221;28;20067;-60
2021/01/17 12:29:13;;;;;;;18.67;3.40;;;;;;;;;;5090114;28;20252;-60
2021/01/17 12:31:38;;;;;;;32.53;5.75;;;;;;;;;;5092397;28;20032;-59
2021/01/17 12:34:05;;;;;;;18.95;3.63;;;;;;;;;;5090084;28;20036;-58
2021/01/17 12:36:31;;;;;;;19.10;3.60;;;;;;;;;;5091883;28;20039;-59
2021/01/17 12:38:58;;;;;;;13.48;3.50;;;;;;;;;;5091373;28;20459;-58
2021/01/17 12:41:23;;;;;;;;;;;;;;;;;;5097233;28;20035;-59
2021/01/17 12:43:48;;;;;;;18.40;3.10;;;;;;;;;;5093748;28;19912;-59
2021/01/17 12:46:15;;;;;;;14.63;2.95;;;;;;;;;;5091092;28;20024;-58
2021/01/17 12:48:40;;;;;;;23.95;4.30;;;;;;;;;;5092236;28;20119;-59
2021/01/17 12:51:06;;;;;;;16.58;3.50;;;;;;;;;;5090985;28;20108;-59
2021/01/17 12:53:31;;;;;;;14.85;3.92;;;;;;;;;;5090091;28;20484;-59
2021/01/17 12:55:57;;;;;;;19.42;3.42;;;;;;;;;;5089829;28;20088;-59
2021/01/17 12:58:23;;;;;;;20.73;4.57;;;;;;;;;;5091609;28;20119;-59
2021/01/17 13:00:48;;;;;;;14.70;3.15;;;;;;;;;;5090392;28;20028;-60
2021/01/17 13:03:13;;;;;;;12.33;3.33;;;;;;;;;;5091086;28;20024;-59
2021/01/17 13:05:39;;;;;;;18.07;4.00;;;;;;;;;;5090530;28;20048;-59
2021/01/17 13:08:04;;;;;;;21.00;3.80;;;;;;;;;;5090271;28;20746;-59
2021/01/17 13:10:30;;;;;;;13.98;3.47;;;;;;;;;;5091996;28;20085;-59
2021/01/17 13:12:55;;;;;;;16.25;3.78;;;;;;;;;;5091610;28;20024;-59
2021/01/17 13:15:23;;;;;;;12.48;3.75;;;;;;;;;;5091941;28;20120;-59
2021/01/17 13:17:48;;;;;;;15.93;2.90;;;;;;;;;;5091539;28;20031;-59
2021/01/17 13:20:14;;;;;;;20.23;3.90;;;;;;;;;;5089685;28;20030;-59
2021/01/17 13:22:41;;;;;;;13.77;2.67;;;;;;;;;;5090876;28;20349;-60
2021/01/17 13:25:07;;;;;;;22.67;3.97;;;;;;;;;;5089457;28;20299;-58
2021/01/17 13:27:32;;;;;;;16.55;4.38;;;;;;;;;;5091164;28;20032;-60
2021/01/17 13:29:57;;;;;;;15.13;3.57;;;;;;;;;;5091160;28;20035;-59
2021/01/17 13:32:23;;;;;;;16.47;3.43;;;;;;;;;;5090978;28;20735;-59
2021/01/17 13:34:48;;;;;;;21.00;3.67;;;;;;;;;;5091747;28;20086;-59
2021/01/17 13:37:15;;;;;;;15.70;3.67;;;;;;;;;;5090269;28;20020;-59
2021/01/17 13:39:44;;;;;;;16.27;3.73;;;;;;;;;;5092056;28;20184;-59
2021/01/17 13:42:10;;;;;;;14.00;3.67;;;;;;;;;;5089359;28;20395;-58
2021/01/17 13:44:36;;;;;;;12.93;2.95;;;;;;;;;;5091287;28;20471;-58
2021/01/17 13:47:01;;;;;;;19.10;3.13;;;;;;;;;;5089081;28;20028;-57
2021/01/17 13:49:27;;;;;;;23.53;4.57;;;;;;;;;;5090256;28;20086;-58
2021/01/17 13:51:52;;;;;;;21.23;4.40;;;;;;;;;;5090919;28;20558;-58
2021/01/17 13:54:17;;;;;;;17.90;3.10;;;;;;;;;;5092667;28;20081;-58
2021/01/17 13:56:43;;;;;;;20.00;3.33;;;;;;;;;;5094927;28;20032;-58
2021/01/17 13:59:08;;;;;;;24.47;3.90;;;;;;;;;;5087382;28;20236;-58
2021/01/17 14:01:37;;;;;;;11.77;4.07;;;;;;;;;;5084858;28;20025;-58
2021/01/17 14:04:02;;;;;;;16.20;4.33;;;;;;;;;;5081606;28;20070;-58
2021/01/17 14:06:27;;;;;;;33.73;6.07;;;;;;;;;;5083713;28;20598;-58
2021/01/17 14:08:53;;;;;;;22.93;4.27;;;;;;;;;;5086906;28;20020;-59
2021/01/17 14:11:18;;;;;;;29.77;3.87;;;;;;;;;;5101257;28;20024;-61
2021/01/17 14:13:43;;;;;;;19.27;3.70;;;;;;;;;;5091224;28;20498;-59
2021/01/17 14:16:09;;;;;;;18.30;3.47;;;;;;;;;;5066100;28;20430;-57
2021/01/17 14:18:34;;;;;;;14.90;3.20;;;;;;;;;;5083037;28;20020;-57
2021/01/17 14:20:59;;;;;;;22.47;4.27;;;;;;;;;;5083799;28;20417;-57
2021/01/17 14:23:25;;;;;;;22.83;4.53;;;;;;;;;;5083937;28;20471;-59
2021/01/17 14:25:50;;;;;;;18.20;3.30;;;;;;;;;;5081827;28;21055;-58
2021/01/17 14:28:15;;;;;;;18.37;5.20;;;;;;;;;;5086749;28;20378;-58